Nearby METAR Reports

 

KRNT - Renton, Washington, USA
Distance from station: NNW 3mi, 4km
Updated: Tue, 27-Oct-2020 6:53pm PDT
Mostly cloudy
Mostly cloudy
 Wind from calm
Wind: Calm
Temperature: 52°F , 11°C
Dew Point: 43°F , 6°C
Humidity: 72%
Barometer: 30.32 inHg , 1026.8 hPa
Clouds: Mostly cloudy
Visibility: 10 miles , 16 km
Cloud details: Mostly cloudy 4500 ft
2020/10/28 01:53 KRNT 280153Z 00000KT 10SM BKN045 11/06 A3032 RMK AO2 SLP271 T01060061
KSEA - Seattle/Metro, Washington, USA
Distance from station: W 5mi, 9km
Updated: Tue, 27-Oct-2020 6:53pm PDT
Partly cloudy
Partly cloudy
 Wind from SSE
Wind: SSE 5 mph , 7 km/h
Temperature: 50°F , 10°C
Wind Chill: 48°F , 9°C
Dew Point: 39°F , 4°C
Humidity: 67%
Barometer: 30.32 inHg , 1026.8 hPa
Clouds: Partly cloudy
Visibility: 10 miles , 16 km
Cloud details: Few Clouds 4100 ft
Few Clouds 18000 ft
Partly cloudy 25000 ft
2020/10/28 01:53 KSEA 280153Z 16004KT 10SM FEW041 FEW180 SCT250 10/04 A3032 RMK AO2 SLP274 T01000044
KBFI - Seattle/Boeing, Washington, USA
Distance from station: NW 8mi, 13km
Updated: Tue, 27-Oct-2020 6:53pm PDT
Overcast
Overcast
 Wind from SSE
Wind: SSE 5 mph , 7 km/h
Temperature: 54°F , 12°C
Dew Point: 43°F , 6°C
Humidity: 67%
Barometer: 30.32 inHg , 1026.8 hPa
Clouds: Overcast
Visibility: 10 miles , 16 km
Cloud details: Overcast 4300 ft
2020/10/28 01:53 KBFI 280153Z 15004KT 10SM OVC043 12/06 A3032 RMK AO2 SLP266 T01170056 $
 
KTIW - Tacoma, Washington, USA
Distance from station: SW 22mi, 36km
Updated: Tue, 27-Oct-2020 6:53pm PDT
Clear
Clear
 Wind from SE
Wind: SE 5 mph , 7 km/h
Temperature: 52°F , 11°C
Dew Point: 39°F , 4°C
Humidity: 62%
Barometer: 30.32 inHg , 1026.8 hPa
Clouds: Clear
Visibility: 10 miles , 16 km
2020/10/28 01:53 KTIW 280153Z 14004KT 10SM CLR 11/04 A3032 RMK AO2 SLP269 T01060039
KPLU - Puyallup/Thun, Washington, USA
Distance from station: S 25mi, 41km
Updated: Tue, 27-Oct-2020 7:15pm PDT
Clear
Clear
 Wind from calm
Wind: Calm
Temperature: 46°F , 8°C
Dew Point: 43°F , 6°C
Humidity: 87%
Barometer: 30.32 inHg , 1026.8 hPa
Clouds: Clear
Visibility: 10 miles , 16 km
2020/10/28 02:15 KPLU 280215Z AUTO 00000KT 10SM CLR 08/06 A3032 RMK AO2
KPWT - Bremerton Ntnl, Washington, USA
Distance from station: W 26mi, 41km
Updated: Tue, 27-Oct-2020 6:56pm PDT
Clear
Clear
 Wind from calm
Wind: Calm
Temperature: 43°F , 6°C
Dew Point: 39°F , 4°C
Humidity: 87%
Barometer: 30.31 inHg , 1026.4 hPa
Clouds: Clear
Visibility: 10 miles , 16 km
2020/10/28 01:56 KPWT 280156Z AUTO 00000KT 10SM CLR 06/04 A3031 RMK AO2 SLP273 T00610044 $
 
KTCM - Tacoma/Mc Chord, Washington, USA
Distance from station: SSW 27mi, 43km
Updated: Tue, 27-Oct-2020 1:58pm PDT
NOT Current
Clear
Clear
 Wind from calm
Wind: Calm
Temperature: 54°F , 12°C
Dew Point: 37°F , 3°C
Humidity: 54%
Barometer: 30.36 inHg , 1028.1 hPa
Clouds: Clear
Visibility: 10 miles , 16 km
2020/10/27 20:58 KTCM 272058Z AUTO 00000KT 10SM CLR 12/03 A3036 RMK AO2 SLP286 T01240033 58020 $
KPAE - Everett, Washington, USA
Distance from station: N 32mi, 51km
Updated: Tue, 27-Oct-2020 6:53pm PDT
Overcast
Overcast
 Wind from varies
Wind: varies 3 mph , 6 km/h
Temperature: 54°F , 12°C
Dew Point: 43°F , 6°C
Humidity: 67%
Barometer: 30.31 inHg , 1026.4 hPa
Clouds: Overcast
Visibility: 10 miles , 16 km
Cloud details: Overcast 3600 ft
2020/10/28 01:53 KPAE 280153Z VRB03KT 10SM OVC036 12/06 A3031 RMK AO2 SLP266 T01170056
KGRF - Fort Lewis/Gray, Washington, USA
Distance from station: SSW 32mi, 52km
Updated: Tue, 27-Oct-2020 1:56pm PDT
NOT Current
Mostly cloudy
Mostly cloudy
 Wind from varies
Wind: varies 6 mph , 9 km/h
Clouds: Mostly cloudy
Visibility: 10 miles , 16 km
Cloud details: Few Clouds 3500 ft
Mostly cloudy 15000 ft
2020/10/27 20:56 KGRF 272056Z VRB05KT 10SM FEW035 BKN150 14/2 A3039 RMK WND DATA ESTMD ALTSG ESTMD
 
KSMP - Stampede Pass, Washington, USA
Distance from station: ESE 42mi, 68km
Updated: Tue, 27-Oct-2020 7:16pm PDT
Fog, Overcast
Fog, Overcast
 Wind from varies
Wind: varies 6 mph , 9 km/h
Temperature: 39°F , 4°C
Wind Chill: 35°F , 2°C
Dew Point: 37°F , 3°C
Humidity: 93%
Barometer: 30.27 inHg , 1025.1 hPa
Summary: Fog
Clouds: Overcast
Visibility: 1/2 mile , 0.8 km
Cloud details: Overcast 200 ft
2020/10/28 02:16 KSMP 280216Z AUTO VRB05KT 1/2SM FG VV002 04/03 A3027 RMK AO2 T00440028
KSHN - Shelton, Washington, USA
Distance from station: WSW 46mi, 75km
Updated: Tue, 27-Oct-2020 6:53pm PDT
Few Clouds
Few Clouds
 Wind from WSW
Wind: WSW 13 mph , 20 km/h
Temperature: 52°F , 11°C
Dew Point: 45°F , 7°C
Humidity: 77%
Barometer: 30.28 inHg , 1025.4 hPa
Clouds: Few Clouds
Visibility: 10 miles , 16 km
Cloud details: Few Clouds 2600 ft
2020/10/28 01:53 KSHN 280153Z AUTO 25011KT 10SM FEW026 11/07 A3028 RMK AO2 SLP258 T01110072
KOLM - Olympia, Washington, USA
Distance from station: SW 47mi, 76km
Updated: Tue, 27-Oct-2020 6:54pm PDT
Clear
Clear
 Wind from calm
Wind: Calm
Temperature: 46°F , 8°C
Dew Point: 41°F , 5°C
Humidity: 82%
Barometer: 30.31 inHg , 1026.4 hPa
Clouds: Clear
Visibility: 10 miles , 16 km
2020/10/28 01:54 KOLM 280154Z 00000KT 10SM CLR 08/05 A3031 RMK AO2 SLP266 T00830050
 
KAWO - Arlington Muni, Washington, USA
Distance from station: N 49mi, 78km
Updated: Tue, 27-Oct-2020 6:56pm PDT
Overcast
Overcast
 Wind from ESE
Wind: ESE 5 mph , 7 km/h
Temperature: 54°F , 12°C
Dew Point: 45°F , 7°C
Humidity: 72%
Barometer: 30.31 inHg , 1026.4 hPa
Clouds: Overcast
Visibility: 10 miles , 16 km
Cloud details: Overcast 3900 ft
2020/10/28 01:56 KAWO 280156Z AUTO 12004KT 10SM OVC039 12/07 A3031 RMK AO2 SLP270 T01170067
K0S9 - Port Townsend, Washington, USA
Distance from station: NW 50mi, 80km
Updated: Tue, 27-Oct-2020 7:15pm PDT

 
2020/10/28 02:15